Terminal Aerodrome Forecast
Issued by NWS Shreveport, LA

Home | Current Version | Previous Version | Text Only | Print | Product List | Glossary On
Versions: 1 2 3 4 5 6 7 8 9 10 11 12 13 14 15 16 17 18 19 20 21 22
757
FTUS44 KSHV 202009 AAA
TAFMLU
TAF AMD
KMLU 202009Z 2020/2118 15006KT P6SM OVC050
      TEMPO 2021/2101 3SM TSRA BR OVC025CB
     FM210200 14006KT P6SM VCSH OVC020
     FM210600 VRB04KT 4SM SHRA BR OVC007
     FM211400 25006KT P6SM -SHRA OVC015=

USA.gov is the U.S. government's official web portal to all federal, state and local government web resources and services.